Time;durP1;ratioP1;P1;durP2;ratioP2;P2;SDS_P1;SDS_P2;PMS_P1;PMS_P2;Temp;Humidity;BMP_temperature;BMP_pressure;BME280_temperature;BME280_humidity;BME280_pressure;Samples;Min_cycle;Max_cycle;Signal;HPM_P1;HPM_P2
2023/12/25 00:01:50;;;;;;;4.85;3.25;;;19.00;63.20;;;;;;5089713;28;20564;-70
2023/12/25 00:04:15;;;;;;;4.78;3.35;;;18.90;63.20;;;;;;5097399;28;20185;-69
2023/12/25 00:06:41;;;;;;;4.53;3.05;;;19.00;63.20;;;;;;5098855;28;20187;-69
2023/12/25 00:09:07;;;;;;;5.90;3.17;;;19.00;63.30;;;;;;5075604;28;20261;-69
2023/12/25 00:11:32;;;;;;;3.95;3.17;;;19.00;63.20;;;;;;5077752;28;20215;-69
2023/12/25 00:13:58;;;;;;;5.20;3.25;;;19.00;63.20;;;;;;5107002;28;20200;-69
2023/12/25 00:16:26;;;;;;;3.75;3.17;;;19.00;63.20;;;;;;5082043;28;20184;-69
2023/12/25 00:18:55;;;;;;;4.55;2.75;;;19.00;63.20;;;;;;5079897;28;20214;-69
2023/12/25 00:21:21;;;;;;;3.72;2.97;;;19.00;63.10;;;;;;5080101;28;20201;-69
2023/12/25 00:23:46;;;;;;;4.90;3.03;;;19.00;63.10;;;;;;5097341;28;20214;-69
2023/12/25 00:26:12;;;;;;;3.95;3.10;;;18.90;63.00;;;;;;5083691;28;20183;-68
2023/12/25 00:28:38;;;;;;;3.53;2.70;;;19.00;63.10;;;;;;5113627;27;20177;-69
2023/12/25 00:31:05;;;;;;;4.20;3.03;;;19.00;63.10;;;;;;5094302;28;20196;-69
2023/12/25 00:33:30;;;;;;;5.22;3.10;;;18.90;62.90;;;;;;5111521;28;20272;-69
2023/12/25 00:35:56;;;;;;;3.08;2.78;;;19.00;63.10;;;;;;5114786;27;20231;-69
2023/12/25 00:38:22;;;;;;;3.72;3.00;;;18.90;62.90;;;;;;5109399;28;20204;-70
2023/12/25 00:40:47;;;;;;;4.22;2.72;;;18.90;62.90;;;;;;5087550;28;20177;-69
2023/12/25 00:43:13;;;;;;;3.88;2.97;;;18.90;62.90;;;;;;5083564;28;20679;-69
2023/12/25 00:45:39;;;;;;;3.20;2.67;;;18.90;62.90;;;;;;5092118;28;20180;-69
2023/12/25 00:48:06;;;;;;;3.47;3.03;;;18.90;62.70;;;;;;5095740;28;20192;-69
2023/12/25 00:50:31;;;;;;;3.20;2.47;;;19.00;62.80;;;;;;5080628;28;20173;-69
2023/12/25 00:52:57;;;;;;;3.92;2.33;;;18.90;62.80;;;;;;5108941;28;20293;-69
2023/12/25 00:55:23;;;;;;;3.45;2.90;;;19.00;62.90;;;;;;5077271;28;20181;-69
2023/12/25 00:57:49;;;;;;;2.72;2.25;;;18.90;62.70;;;;;;5076129;28;20597;-69
2023/12/25 01:00:15;;;;;;;3.80;2.78;;;18.90;62.80;;;;;;5096534;28;20196;-69
2023/12/25 01:02:40;;;;;;;3.35;2.65;;;18.90;62.70;;;;;;5076936;28;20198;-69
2023/12/25 01:05:07;;;;;;;3.70;2.63;;;18.90;62.70;;;;;;5103223;28;20211;-69
2023/12/25 01:07:33;;;;;;;4.43;2.63;;;18.90;62.70;;;;;;5080648;28;20181;-69
2023/12/25 01:09:59;;;;;;;5.28;2.97;;;18.90;62.70;;;;;;5078211;28;20234;-69
2023/12/25 01:12:25;;;;;;;3.58;2.60;;;18.90;62.70;;;;;;5087038;28;20212;-69
2023/12/25 01:14:51;;;;;;;5.18;3.00;;;18.90;62.70;;;;;;5111988;27;20188;-68
2023/12/25 01:17:17;;;;;;;2.85;2.33;;;18.90;62.70;;;;;;5093873;28;20234;-69
2023/12/25 01:19:42;;;;;;;4.03;2.72;;;18.90;62.70;;;;;;5107287;28;20208;-69
2023/12/25 01:22:08;;;;;;;4.05;2.60;;;18.90;62.60;;;;;;5096127;28;20204;-69
2023/12/25 01:24:34;;;;;;;3.97;2.33;;;18.90;62.60;;;;;;5078125;28;20260;-69
2023/12/25 01:27:00;;;;;;;4.38;2.80;;;18.90;62.60;;;;;;5093512;28;20184;-69
2023/12/25 01:29:26;;;;;;;4.05;2.53;;;18.90;62.60;;;;;;5102052;28;20207;-69
2023/12/25 01:31:51;;;;;;;2.92;2.42;;;18.90;62.50;;;;;;5079265;28;20201;-69
2023/12/25 01:34:18;;;;;;;3.13;2.20;;;18.90;62.50;;;;;;5085420;28;20207;-69
2023/12/25 01:36:44;;;;;;;2.92;2.13;;;18.90;62.50;;;;;;5091823;28;20191;-69
2023/12/25 01:39:12;;;;;;;2.63;2.20;;;18.90;62.50;;;;;;5085303;28;20299;-69
2023/12/25 01:41:38;;;;;;;3.92;2.53;;;18.90;62.50;;;;;;5108335;28;20204;-69
2023/12/25 01:44:03;;;;;;;3.00;2.50;;;18.90;62.50;;;;;;5107469;28;20184;-69
2023/12/25 01:46:29;;;;;;;3.45;2.65;;;18.90;62.40;;;;;;5094033;28;20181;-69
2023/12/25 01:48:55;;;;;;;4.20;2.67;;;18.90;62.50;;;;;;5074239;28;20200;-69
2023/12/25 01:51:22;;;;;;;3.28;2.30;;;18.90;62.30;;;;;;5075901;28;20209;-69
2023/12/25 01:53:49;;;;;;;3.90;2.40;;;18.90;62.30;;;;;;5098332;28;20201;-69
2023/12/25 01:56:16;;;;;;;2.47;2.03;;;18.90;62.40;;;;;;5084333;28;20188;-69
2023/12/25 01:58:42;;;;;;;2.58;2.10;;;18.90;62.40;;;;;;5107581;28;20205;-69
2023/12/25 02:01:08;;;;;;;3.47;2.05;;;18.90;62.40;;;;;;5093783;28;20196;-69
2023/12/25 02:03:34;;;;;;;2.55;2.13;;;18.90;62.40;;;;;;5091833;28;20177;-69
2023/12/25 02:06:01;;;;;;;2.55;2.35;;;18.90;62.30;;;;;;5094813;28;20181;-69
2023/12/25 02:08:28;;;;;;;3.05;2.20;;;18.90;62.20;;;;;;5083376;28;20185;-69
2023/12/25 02:10:54;;;;;;;2.60;2.17;;;18.90;62.30;;;;;;5092403;28;20670;-69
2023/12/25 02:13:20;;;;;;;3.38;2.35;;;18.90;62.20;;;;;;5076508;28;20216;-69
2023/12/25 02:15:49;;;;;;;2.90;2.30;;;18.90;62.10;;;;;;5093888;28;20680;-69
2023/12/25 02:18:15;;;;;;;2.80;2.22;;;18.90;62.20;;;;;;5075979;28;20189;-69
2023/12/25 02:20:41;;;;;;;2.53;1.95;;;18.90;62.10;;;;;;5076475;28;20188;-69
2023/12/25 02:23:12;;;;;;;4.03;2.40;;;18.90;62.10;;;;;;5091310;28;20209;-69
2023/12/25 02:26:08;;;;;;;3.08;1.95;;;18.90;62.10;;;;;;5093067;28;20181;-69
2023/12/25 02:28:34;;;;;;;2.33;2.05;;;18.90;62.10;;;;;;5079527;28;20576;-69
2023/12/25 02:31:03;;;;;;;2.40;1.88;;;18.90;62.10;;;;;;5089566;28;20181;-69
2023/12/25 02:33:29;;;;;;;2.22;1.88;;;18.90;62.10;;;;;;5072284;28;20201;-69
2023/12/25 02:35:56;;;;;;;3.17;2.10;;;18.90;62.10;;;;;;5092686;28;20185;-69
2023/12/25 02:38:22;;;;;;;2.33;1.70;;;18.90;62.00;;;;;;5075726;28;20192;-68
2023/12/25 02:40:48;;;;;;;2.70;2.05;;;18.90;62.00;;;;;;5108661;28;20191;-69
2023/12/25 02:43:14;;;;;;;2.80;1.80;;;18.90;62.10;;;;;;5092139;28;20205;-69
2023/12/25 02:45:39;;;;;;;2.58;2.15;;;18.90;62.00;;;;;;5092332;28;20180;-69
2023/12/25 02:48:06;;;;;;;2.20;1.77;;;18.90;62.00;;;;;;5092726;28;20188;-69
2023/12/25 02:50:32;;;;;;;2.10;1.80;;;18.90;61.90;;;;;;5107790;28;20188;-69
2023/12/25 02:52:58;;;;;;;3.50;2.10;;;18.90;62.00;;;;;;5091826;28;20213;-69
2023/12/25 02:55:24;;;;;;;2.45;1.90;;;18.90;61.90;;;;;;5109131;28;20310;-69
2023/12/25 02:57:49;;;;;;;1.55;1.45;;;18.90;61.90;;;;;;5109150;28;20264;-69
2023/12/25 03:00:15;;;;;;;2.70;2.25;;;18.90;61.80;;;;;;5101286;28;20296;-68
2023/12/25 03:02:41;;;;;;;1.95;1.67;;;18.80;61.70;;;;;;5095639;28;20231;-69
2023/12/25 03:05:07;;;;;;;2.38;1.83;;;18.90;61.80;;;;;;5076577;28;20192;-69
2023/12/25 03:07:33;;;;;;;2.65;1.98;;;18.90;61.80;;;;;;5090927;28;20185;-69
2023/12/25 03:09:58;;;;;;;1.80;1.48;;;18.90;61.90;;;;;;5088150;28;20241;-69
2023/12/25 03:12:24;;;;;;;1.95;1.63;;;18.90;61.80;;;;;;5115697;28;20212;-69
2023/12/25 03:14:50;;;;;;;1.67;1.58;;;18.80;61.70;;;;;;5092492;28;20181;-69
2023/12/25 03:17:15;;;;;;;2.25;1.77;;;18.90;61.80;;;;;;5075197;28;20275;-69
2023/12/25 03:19:41;;;;;;;2.92;1.75;;;18.80;61.60;;;;;;5091554;28;20205;-69
2023/12/25 03:22:08;;;;;;;1.98;1.70;;;18.80;61.60;;;;;;5074693;28;20585;-69
2023/12/25 03:24:35;;;;;;;1.55;1.40;;;18.90;61.70;;;;;;5075598;28;20177;-69
2023/12/25 03:27:00;;;;;;;1.85;1.67;;;18.80;61.60;;;;;;5091774;28;20181;-69
2023/12/25 03:29:26;;;;;;;2.22;1.60;;;18.80;61.60;;;;;;5077698;28;20192;-69
2023/12/25 03:31:52;;;;;;;1.90;1.58;;;18.90;61.60;;;;;;5095353;28;20209;-69
2023/12/25 03:34:19;;;;;;;2.38;1.67;;;18.80;61.50;;;;;;5111635;28;20190;-69
2023/12/25 03:36:45;;;;;;;2.10;1.60;;;18.80;61.50;;;;;;5095389;28;20716;-69
2023/12/25 03:39:11;;;;;;;1.83;1.73;;;18.90;61.60;;;;;;5095462;28;20232;-69
2023/12/25 03:41:37;;;;;;;2.92;1.88;;;18.80;61.50;;;;;;5078572;28;20197;-69
2023/12/25 03:44:03;;;;;;;1.70;1.45;;;18.80;61.50;;;;;;5078733;28;20659;-69
2023/12/25 03:46:29;;;;;;;2.00;1.80;;;18.80;61.30;;;;;;5087398;28;20170;-69
2023/12/25 03:48:55;;;;;;;2.13;1.40;;;18.80;61.50;;;;;;5078499;28;20185;-69
2023/12/25 03:51:22;;;;;;;2.75;1.58;;;18.80;61.30;;;;;;5078304;28;20205;-70
2023/12/25 03:53:47;;;;;;;2.13;1.92;;;18.90;61.40;;;;;;5095004;28;20335;-70
2023/12/25 03:56:17;;;;;;;1.80;1.70;;;18.80;61.30;;;;;;5095120;28;20203;-70
2023/12/25 03:58:44;;;;;;;2.10;1.70;;;18.80;61.30;;;;;;5078594;28;20216;-69
2023/12/25 04:01:13;;;;;;;1.80;1.45;;;18.80;61.20;;;;;;5077385;28;20185;-69
2023/12/25 04:03:38;;;;;;;1.50;1.40;;;18.80;61.20;;;;;;5078046;28;20191;-69
2023/12/25 04:06:04;;;;;;;1.98;1.65;;;18.80;61.20;;;;;;5091853;28;20189;-69
2023/12/25 04:08:31;;;;;;;1.83;1.60;;;18.80;61.10;;;;;;5086666;28;20650;-69
2023/12/25 04:10:56;;;;;;;2.28;1.90;;;18.80;61.20;;;;;;5077688;28;20185;-68
2023/12/25 04:13:22;;;;;;;4.15;1.50;;;18.80;61.10;;;;;;5077626;28;20212;-69
2023/12/25 04:15:48;;;;;;;1.33;1.20;;;18.80;61.20;;;;;;5094447;28;20235;-69
2023/12/25 04:18:14;;;;;;;1.45;1.35;;;18.80;61.10;;;;;;5093698;28;20197;-69
2023/12/25 04:20:39;;;;;;;1.85;1.52;;;18.80;61.10;;;;;;5094607;28;20188;-69
2023/12/25 04:23:05;;;;;;;2.40;1.60;;;18.80;61.10;;;;;;5077809;28;20212;-69
2023/12/25 04:25:31;;;;;;;2.03;1.30;;;18.80;61.10;;;;;;5094542;28;20177;-69
2023/12/25 04:27:57;;;;;;;1.58;1.48;;;18.80;61.20;;;;;;5094420;28;20259;-69
2023/12/25 04:30:22;;;;;;;1.48;1.38;;;18.80;61.10;;;;;;5077163;28;20212;-69
2023/12/25 04:32:48;;;;;;;1.50;1.40;;;18.80;61.10;;;;;;5094888;28;20216;-69
2023/12/25 04:35:14;;;;;;;1.50;1.40;;;18.80;61.00;;;;;;5093076;28;20192;-69
2023/12/25 04:37:40;;;;;;;1.50;1.40;;;18.80;61.00;;;;;;5084775;28;20559;-69
2023/12/25 04:40:06;;;;;;;2.03;1.67;;;18.80;61.00;;;;;;5083551;28;20215;-70
2023/12/25 04:42:32;;;;;;;2.33;1.40;;;18.80;61.00;;;;;;5101586;28;20201;-69
2023/12/25 04:45:00;;;;;;;1.50;1.40;;;18.80;60.90;;;;;;5109214;28;20275;-69
2023/12/25 04:47:26;;;;;;;1.70;1.35;;;18.80;61.00;;;;;;5096694;28;20184;-69
2023/12/25 04:49:51;;;;;;;2.03;1.20;;;18.80;60.80;;;;;;5099334;28;20185;-69
2023/12/25 04:52:17;;;;;;;1.45;1.33;;;18.80;61.00;;;;;;5100717;28;20200;-69
2023/12/25 04:54:43;;;;;;;2.20;1.40;;;18.80;60.90;;;;;;5077403;28;20185;-68
2023/12/25 04:57:09;;;;;;;2.53;1.13;;;18.80;60.90;;;;;;5094425;28;20185;-69
2023/12/25 04:59:34;;;;;;;1.60;1.30;;;18.80;60.90;;;;;;5080308;28;20212;-69
2023/12/25 05:02:00;;;;;;;1.77;1.30;;;18.80;60.90;;;;;;5080044;28;20212;-69
2023/12/25 05:04:27;;;;;;;1.38;1.20;;;18.80;60.90;;;;;;5100841;28;20189;-69
2023/12/25 05:06:53;;;;;;;1.70;1.13;;;18.80;60.80;;;;;;5100801;28;20234;-67
2023/12/25 05:09:19;;;;;;;2.47;1.30;;;18.80;60.80;;;;;;5078080;28;20193;-69
2023/12/25 05:11:45;;;;;;;2.58;1.55;;;18.80;60.60;;;;;;5090912;28;20204;-69
2023/12/25 05:14:10;;;;;;;1.83;1.25;;;18.80;60.80;;;;;;5100475;28;20192;-69
2023/12/25 05:16:36;;;;;;;1.45;1.35;;;18.80;60.90;;;;;;5086751;28;20180;-69
2023/12/25 05:19:02;;;;;;;1.17;1.08;;;18.80;60.70;;;;;;5086194;28;20201;-69
2023/12/25 05:21:28;;;;;;;1.50;1.33;;;18.80;60.60;;;;;;5086693;28;20205;-69
2023/12/25 05:23:54;;;;;;;1.58;1.48;;;18.80;60.80;;;;;;5076387;28;20180;-69
2023/12/25 05:26:21;;;;;;;1.40;1.30;;;18.80;60.70;;;;;;5093210;28;20191;-69
2023/12/25 05:28:47;;;;;;;1.10;1.00;;;18.80;60.80;;;;;;5104555;28;20186;-69
2023/12/25 05:31:13;;;;;;;1.20;1.10;;;18.80;60.70;;;;;;5090950;28;20188;-69
2023/12/25 05:33:39;;;;;;;1.15;0.90;;;18.80;60.70;;;;;;5103247;28;20188;-69
2023/12/25 05:36:05;;;;;;;1.50;1.23;;;18.80;60.60;;;;;;5103543;28;20196;-69
2023/12/25 05:38:31;;;;;;;1.30;1.10;;;18.80;60.70;;;;;;5094640;28;20192;-69
2023/12/25 05:40:56;;;;;;;1.05;1.00;;;18.80;60.70;;;;;;5080193;28;20191;-69
2023/12/25 05:43:22;;;;;;;1.27;0.98;;;18.80;60.60;;;;;;5106306;28;20208;-69
2023/12/25 05:45:48;;;;;;;1.35;1.10;;;18.80;60.50;;;;;;5088509;28;20176;-69
2023/12/25 05:48:13;;;;;;;1.40;1.30;;;18.80;60.50;;;;;;5095910;28;20187;-69
2023/12/25 05:50:39;;;;;;;1.15;1.13;;;18.80;60.60;;;;;;5086953;28;20176;-69
2023/12/25 05:53:05;;;;;;;1.17;1.00;;;18.80;60.50;;;;;;5080948;28;20212;-69
2023/12/25 05:55:31;;;;;;;1.40;1.30;;;18.80;60.50;;;;;;5101835;28;20268;-69
2023/12/25 05:57:57;;;;;;;1.38;1.27;;;18.80;60.50;;;;;;5101193;28;20188;-69
2023/12/25 06:00:23;;;;;;;1.20;1.10;;;18.80;60.40;;;;;;5115401;27;20220;-68
2023/12/25 06:02:49;;;;;;;1.10;1.00;;;18.80;60.30;;;;;;5088063;28;20213;-69
2023/12/25 06:05:14;;;;;;;1.25;1.05;;;18.80;60.50;;;;;;5120468;27;20191;-69
2023/12/25 06:07:40;;;;;;;1.52;1.27;;;18.80;60.40;;;;;;5087294;28;20215;-69
2023/12/25 06:10:07;;;;;;;1.17;1.08;;;18.80;60.40;;;;;;5083040;28;20671;-69
2023/12/25 06:12:32;;;;;;;1.13;1.02;;;18.80;60.30;;;;;;5105135;28;20293;-69
2023/12/25 06:14:58;;;;;;;1.35;1.25;;;18.80;60.40;;;;;;5102096;28;20197;-69
2023/12/25 06:17:24;;;;;;;1.30;1.20;;;18.80;60.40;;;;;;5099448;28;20187;-68
2023/12/25 06:19:50;;;;;;;1.10;1.02;;;18.80;60.20;;;;;;5107621;28;20219;-69
2023/12/25 06:22:15;;;;;;;1.15;1.00;;;18.80;60.30;;;;;;5099800;28;20216;-69
2023/12/25 06:24:41;;;;;;;1.10;1.10;;;18.70;60.10;;;;;;5092491;28;20188;-70
2023/12/25 06:27:07;;;;;;;0.80;0.80;;;18.80;60.20;;;;;;5098469;28;20259;-69
2023/12/25 06:29:32;;;;;;;1.00;1.00;;;18.80;60.20;;;;;;5109479;28;20195;-69
2023/12/25 06:31:58;;;;;;;0.80;0.80;;;18.80;60.30;;;;;;5099240;28;20427;-69
2023/12/25 06:34:24;;;;;;;1.35;1.10;;;18.80;60.30;;;;;;5092589;28;20256;-69
2023/12/25 06:36:49;;;;;;;1.05;0.98;;;18.70;60.20;;;;;;5075828;28;20268;-69
2023/12/25 06:39:16;;;;;;;0.82;0.80;;;18.80;60.20;;;;;;5075469;28;20207;-69
2023/12/25 06:41:42;;;;;;;1.52;1.00;;;18.70;59.90;;;;;;5106641;28;20192;-69
2023/12/25 06:44:07;;;;;;;1.08;1.08;;;18.80;60.10;;;;;;5093712;28;20185;-69
2023/12/25 06:46:35;;;;;;;1.10;1.00;;;18.80;60.10;;;;;;5092203;28;20179;-69
2023/12/25 06:49:01;;;;;;;1.65;1.15;;;18.80;60.10;;;;;;5101020;28;20196;-69
2023/12/25 06:51:27;;;;;;;1.30;1.20;;;18.80;60.10;;;;;;5102758;28;20213;-69
2023/12/25 06:53:53;;;;;;;0.80;0.80;;;18.70;59.90;;;;;;5093760;28;20226;-68
2023/12/25 06:56:19;;;;;;;1.10;1.00;;;18.80;60.00;;;;;;5098884;28;20208;-69
2023/12/25 06:58:45;;;;;;;0.93;0.82;;;18.70;59.90;;;;;;5086021;28;20253;-69
2023/12/25 07:01:11;;;;;;;1.02;0.93;;;18.70;59.90;;;;;;5080535;28;20185;-69
2023/12/25 07:03:36;;;;;;;0.90;0.80;;;18.80;60.00;;;;;;5077668;28;20203;-69
2023/12/25 07:06:02;;;;;;;0.75;0.70;;;18.70;59.70;;;;;;5086869;28;20185;-69
2023/12/25 07:08:28;;;;;;;1.08;0.98;;;18.70;59.80;;;;;;5076159;28;20231;-69
2023/12/25 07:10:54;;;;;;;1.27;1.10;;;18.70;59.80;;;;;;5084184;28;20237;-69
2023/12/25 07:13:20;;;;;;;1.13;0.93;;;18.70;59.90;;;;;;5083093;28;20707;-68
2023/12/25 07:15:46;;;;;;;0.85;0.80;;;18.70;59.70;;;;;;5120897;27;20187;-69
2023/12/25 07:18:12;;;;;;;2.08;1.00;;;18.70;59.80;;;;;;5085977;28;20180;-69
2023/12/25 07:20:38;;;;;;;1.40;1.30;;;18.80;59.90;;;;;;5085512;28;20249;-70
2023/12/25 07:23:03;;;;;;;1.10;1.00;;;18.70;60.40;;;;;;5083760;28;20205;-70
2023/12/25 07:25:29;;;;;;;0.90;0.90;;;18.70;59.80;;;;;;5083533;28;20192;-68
2023/12/25 07:27:55;;;;;;;0.93;0.88;;;18.70;59.90;;;;;;5083651;28;20183;-70
2023/12/25 07:30:21;;;;;;;1.20;1.13;;;18.70;59.80;;;;;;5100031;28;20197;-70
2023/12/25 07:32:46;;;;;;;1.20;0.98;;;18.70;59.60;;;;;;5100579;28;20216;-70
2023/12/25 07:35:12;;;;;;;1.10;1.00;;;18.70;59.80;;;;;;5080446;28;20250;-69
2023/12/25 07:37:38;;;;;;;1.13;1.02;;;18.70;59.70;;;;;;5105768;28;20185;-69
2023/12/25 07:40:05;;;;;;;1.10;1.00;;;18.70;59.60;;;;;;5095268;28;20211;-69
2023/12/25 07:42:31;;;;;;;1.23;1.10;;;18.70;59.70;;;;;;5096110;28;20210;-69
2023/12/25 07:44:57;;;;;;;1.10;1.00;;;18.70;59.60;;;;;;5106967;28;20237;-69
2023/12/25 07:47:22;;;;;;;0.75;0.75;;;18.70;59.60;;;;;;5088364;28;20185;-70
2023/12/25 07:49:48;;;;;;;1.20;1.05;;;18.70;59.60;;;;;;5082015;28;20193;-70
2023/12/25 07:52:14;;;;;;;1.00;1.00;;;18.70;59.60;;;;;;5099299;28;20215;-70
2023/12/25 07:54:40;;;;;;;1.02;0.93;;;18.80;59.70;;;;;;5107259;28;20185;-70
2023/12/25 07:57:05;;;;;;;1.10;0.90;;;18.70;59.60;;;;;;5102687;28;20181;-69
2023/12/25 07:59:31;;;;;;;1.00;1.00;;;18.80;59.70;;;;;;5100218;28;20200;-69
2023/12/25 08:01:57;;;;;;;1.27;1.17;;;18.70;59.60;;;;;;5089789;28;20207;-70
2023/12/25 08:04:22;;;;;;;1.20;1.10;;;18.70;59.60;;;;;;5095524;28;20188;-70
2023/12/25 08:06:48;;;;;;;0.93;0.93;;;18.80;59.70;;;;;;5106744;28;20187;-69
2023/12/25 08:09:14;;;;;;;1.13;1.02;;;18.80;59.70;;;;;;5099826;28;20187;-70
2023/12/25 08:11:39;;;;;;;1.10;1.00;;;18.80;59.70;;;;;;5100560;28;20209;-70
2023/12/25 08:14:05;;;;;;;1.20;1.10;;;18.80;59.70;;;;;;5098924;28;20195;-70
2023/12/25 08:16:31;;;;;;;1.27;1.00;;;18.70;59.60;;;;;;5077702;28;20189;-70
2023/12/25 08:18:57;;;;;;;2.08;1.00;;;18.80;59.60;;;;;;5090134;28;20211;-70
2023/12/25 08:21:23;;;;;;;1.02;1.02;;;18.80;59.70;;;;;;5084023;28;20293;-69
2023/12/25 08:23:49;;;;;;;1.27;1.17;;;18.70;59.60;;;;;;5096770;28;20185;-70
2023/12/25 08:26:14;;;;;;;0.93;0.93;;;18.70;59.50;;;;;;5082835;28;20177;-69
2023/12/25 08:28:40;;;;;;;1.40;1.10;;;18.70;59.60;;;;;;5097532;28;20186;-70
2023/12/25 08:31:07;;;;;;;1.10;1.00;;;18.70;59.60;;;;;;5100770;28;20271;-70
2023/12/25 08:33:35;;;;;;;1.20;1.10;;;18.70;59.60;;;;;;5094549;28;20222;-69
2023/12/25 08:36:01;;;;;;;0.90;0.80;;;18.70;59.50;;;;;;5088825;28;20184;-71
2023/12/25 08:38:27;;;;;;;1.98;1.00;;;18.70;59.60;;;;;;5102360;28;20189;-70
2023/12/25 08:40:53;;;;;;;1.40;1.30;;;18.70;59.60;;;;;;5087936;28;20316;-69
2023/12/25 08:43:19;;;;;;;1.23;1.08;;;18.80;59.50;;;;;;5079750;28;20216;-69
2023/12/25 08:45:44;;;;;;;1.00;1.00;;;18.80;59.50;;;;;;5096225;28;20182;-69
2023/12/25 08:48:10;;;;;;;1.20;1.10;;;18.80;59.60;;;;;;5080921;28;20177;-68
2023/12/25 08:50:36;;;;;;;1.30;1.20;;;18.70;59.40;;;;;;5098838;28;20565;-70
2023/12/25 08:53:02;;;;;;;1.27;1.17;;;18.70;59.40;;;;;;5092014;28;20222;-69
2023/12/25 08:55:27;;;;;;;1.15;1.05;;;18.70;59.40;;;;;;5093804;28;20192;-68
2023/12/25 08:57:53;;;;;;;1.00;1.00;;;18.70;59.40;;;;;;5101019;28;20193;-68
2023/12/25 09:00:20;;;;;;;1.45;0.90;;;18.80;59.60;;;;;;5097214;28;20310;-68
2023/12/25 09:02:46;;;;;;;1.10;1.10;;;18.70;59.40;;;;;;5085831;28;20201;-68
2023/12/25 09:05:12;;;;;;;0.90;0.90;;;18.70;59.40;;;;;;5082495;28;20192;-68
2023/12/25 09:07:38;;;;;;;1.25;1.20;;;18.70;59.30;;;;;;5087194;28;20193;-68
2023/12/25 09:10:06;;;;;;;1.42;0.80;;;18.70;59.20;;;;;;5080068;28;20195;-68
2023/12/25 09:12:33;;;;;;;1.20;1.10;;;18.80;59.40;;;;;;5084937;28;20311;-68
2023/12/25 09:14:59;;;;;;;1.35;1.20;;;18.70;59.30;;;;;;5105064;28;20184;-68
2023/12/25 09:17:24;;;;;;;1.08;0.98;;;18.80;59.40;;;;;;5114188;27;20185;-69
2023/12/25 09:19:50;;;;;;;1.27;1.17;;;18.80;59.20;;;;;;5095927;28;20213;-69
2023/12/25 09:22:17;;;;;;;1.20;1.10;;;18.70;59.30;;;;;;5100193;28;20286;-69
2023/12/25 09:24:44;;;;;;;1.13;1.02;;;18.80;59.30;;;;;;5097130;28;20189;-69
2023/12/25 09:27:10;;;;;;;1.13;1.02;;;18.80;59.30;;;;;;5078613;28;20312;-69
2023/12/25 09:29:36;;;;;;;1.40;1.00;;;18.80;59.30;;;;;;5076391;28;20194;-69
2023/12/25 09:32:03;;;;;;;2.05;1.05;;;18.80;59.30;;;;;;5121308;27;20216;-69
2023/12/25 09:34:29;;;;;;;1.05;0.90;;;18.80;59.30;;;;;;5093346;28;20195;-69
2023/12/25 09:36:56;;;;;;;1.38;1.27;;;18.80;59.30;;;;;;5105043;28;20184;-69
2023/12/25 09:39:22;;;;;;;1.42;0.93;;;18.80;59.30;;;;;;5100126;28;20205;-68
2023/12/25 09:41:48;;;;;;;1.25;0.93;;;18.80;59.30;;;;;;5102796;28;20196;-69
2023/12/25 09:44:14;;;;;;;1.75;0.98;;;18.80;59.20;;;;;;5082597;28;20191;-69
2023/12/25 09:46:40;;;;;;;1.02;0.93;;;18.80;59.20;;;;;;5082259;28;20188;-70
2023/12/25 09:49:06;;;;;;;1.23;1.13;;;18.80;59.20;;;;;;5085829;28;20271;-69
2023/12/25 09:51:34;;;;;;;1.45;0.90;;;18.80;59.30;;;;;;5091902;28;20200;-69
2023/12/25 09:54:01;;;;;;;1.13;1.10;;;18.80;59.20;;;;;;5112203;27;20181;-69
2023/12/25 09:56:29;;;;;;;1.00;1.00;;;18.80;59.20;;;;;;5096577;28;20259;-69
2023/12/25 09:58:58;;;;;;;1.30;1.20;;;18.80;59.20;;;;;;5097362;28;20295;-69
2023/12/25 10:01:25;;;;;;;1.30;0.90;;;18.80;59.20;;;;;;5115546;27;20216;-69
2023/12/25 10:03:53;;;;;;;0.88;0.88;;;18.80;59.20;;;;;;5108111;28;20209;-69
2023/12/25 10:06:21;;;;;;;1.38;1.10;;;18.80;59.10;;;;;;5081848;28;20239;-70
2023/12/25 10:08:47;;;;;;;1.52;0.93;;;18.80;59.10;;;;;;5078738;28;20176;-69
2023/12/25 10:11:14;;;;;;;1.65;1.20;;;18.80;59.20;;;;;;5105296;28;20203;-68
2023/12/25 10:13:43;;;;;;;1.35;1.23;;;18.80;59.20;;;;;;5093605;28;20193;-69
2023/12/25 10:16:09;;;;;;;1.10;1.05;;;18.80;59.20;;;;;;5077984;28;20183;-69
2023/12/25 10:18:39;;;;;;;2.13;1.20;;;18.80;59.30;;;;;;5097546;28;20660;-70
2023/12/25 10:21:06;;;;;;;1.38;1.00;;;18.80;59.30;;;;;;5078246;28;20184;-69
2023/12/25 10:23:34;;;;;;;1.27;1.15;;;18.80;59.20;;;;;;5103342;28;20185;-69
2023/12/25 10:26:03;;;;;;;1.08;1.08;;;18.80;59.20;;;;;;5084776;28;20179;-69
2023/12/25 10:28:32;;;;;;;0.85;0.85;;;18.80;59.20;;;;;;5089887;28;20570;-69
2023/12/25 10:31:08;;;;;;;0.90;0.90;;;18.80;59.10;;;;;;5098226;28;20189;-69
2023/12/25 10:33:36;;;;;;;1.20;1.10;;;18.80;59.10;;;;;;5090380;28;20179;-69
2023/12/25 10:36:08;;;;;;;0.95;0.82;;;18.80;59.10;;;;;;5092598;28;20180;-69
2023/12/25 10:38:40;;;;;;;2.03;1.00;;;18.80;59.20;;;;;;5100961;28;20181;-68
2023/12/25 10:41:31;;;;;;;1.00;0.93;;;18.80;59.20;;;;;;5096633;28;20184;-69
2023/12/25 10:44:00;;;;;;;1.52;1.00;;;18.80;59.20;;;;;;5090987;28;20181;-69
2023/12/25 10:46:34;;;;;;;1.30;1.10;;;18.80;59.30;;;;;;5091432;28;20181;-68
2023/12/25 10:49:03;;;;;;;0.90;0.90;;;18.80;59.20;;;;;;5099058;28;20196;-69
2023/12/25 10:51:46;;;;;;;1.58;1.10;;;18.80;59.20;;;;;;5076074;28;20209;-69
2023/12/25 10:54:13;;;;;;;2.42;1.35;;;18.80;59.20;;;;;;5096585;28;20220;-69
2023/12/25 10:56:39;;;;;;;0.85;0.70;;;18.80;59.20;;;;;;5098618;28;20246;-69
2023/12/25 10:59:30;;;;;;;1.85;0.90;;;18.80;59.10;;;;;;5100486;28;20219;-70
2023/12/25 11:02:00;;;;;;;0.82;0.82;;;18.80;59.20;;;;;;5095682;28;20200;-70
2023/12/25 11:04:26;;;;;;;0.77;0.77;;;18.80;59.20;;;;;;5080932;28;20176;-70
2023/12/25 11:06:54;;;;;;;0.85;0.85;;;18.80;59.20;;;;;;5098697;28;20185;-70
2023/12/25 11:09:20;;;;;;;1.15;0.82;;;18.80;59.20;;;;;;5079849;28;20184;-70
2023/12/25 11:11:46;;;;;;;1.15;1.02;;;18.80;59.20;;;;;;5090565;28;20230;-70
2023/12/25 11:14:12;;;;;;;1.15;1.00;;;18.80;59.20;;;;;;5097702;28;20219;-69
2023/12/25 11:16:38;;;;;;;1.40;1.00;;;18.80;59.30;;;;;;5096236;28;20245;-70
2023/12/25 11:19:05;;;;;;;1.10;1.00;;;18.90;59.30;;;;;;5088823;28;20228;-69
2023/12/25 11:21:33;;;;;;;0.70;0.70;;;18.80;59.20;;;;;;5095196;28;20208;-69
2023/12/25 11:24:02;;;;;;;1.10;1.00;;;18.80;59.20;;;;;;5097156;28;20185;-69
2023/12/25 11:26:30;;;;;;;1.20;1.00;;;18.80;59.30;;;;;;5091029;28;20177;-69
2023/12/25 11:29:10;;;;;;;0.90;0.90;;;18.80;59.30;;;;;;5114315;27;20184;-69
2023/12/25 11:31:49;;;;;;;1.00;0.90;;;18.80;59.30;;;;;;5096455;28;20201;-68
2023/12/25 11:34:29;;;;;;;1.20;1.00;;;18.90;59.30;;;;;;5093519;28;20180;-68
2023/12/25 11:36:59;;;;;;;0.85;0.82;;;18.90;59.30;;;;;;5096110;28;20196;-69
2023/12/25 11:39:27;;;;;;;1.60;0.80;;;18.90;59.30;;;;;;5078920;28;20211;-69
2023/12/25 11:41:53;;;;;;;1.33;1.05;;;18.90;59.30;;;;;;5111663;27;20212;-69
2023/12/25 11:44:33;;;;;;;0.77;0.77;;;18.80;59.30;;;;;;5096937;28;20169;-69
2023/12/25 11:47:02;;;;;;;1.83;1.00;;;18.80;59.30;;;;;;5112450;28;20216;-68
2023/12/25 11:49:31;;;;;;;1.45;1.00;;;18.90;59.40;;;;;;5104466;28;20188;-68
2023/12/25 11:51:57;;;;;;;0.75;0.73;;;18.80;59.30;;;;;;5109388;28;20275;-69
2023/12/25 11:54:29;;;;;;;0.77;0.60;;;18.90;59.40;;;;;;5096414;28;20276;-69
2023/12/25 11:57:14;;;;;;;3.03;1.40;;;18.90;59.30;;;;;;5114957;28;20188;-68
2023/12/25 11:59:41;;;;;;;0.80;0.80;;;18.80;59.40;;;;;;5087939;28;20267;-68
2023/12/25 12:02:08;;;;;;;0.80;0.80;;;18.90;59.40;;;;;;5098554;28;20207;-69
2023/12/25 12:04:34;;;;;;;0.95;0.95;;;18.90;59.40;;;;;;5111922;28;20605;-69
2023/12/25 12:07:00;;;;;;;1.85;1.20;;;18.80;59.30;;;;;;5093485;28;20182;-68
2023/12/25 12:09:25;;;;;;;2.20;0.95;;;18.90;59.50;;;;;;5074594;28;20181;-69
2023/12/25 12:11:51;;;;;;;1.10;1.00;;;18.90;59.40;;;;;;5091008;28;20204;-68
2023/12/25 12:14:17;;;;;;;1.20;1.10;;;18.90;60.10;;;;;;5104061;27;20267;-68
2023/12/25 12:16:43;;;;;;;0.88;0.88;;;18.80;59.40;;;;;;5101865;28;20187;-68
2023/12/25 12:19:12;;;;;;;1.15;0.90;;;18.90;59.40;;;;;;5080779;28;20248;-69
2023/12/25 12:21:39;;;;;;;1.08;0.98;;;18.90;59.60;;;;;;5093210;28;20232;-69
2023/12/25 12:24:05;;;;;;;1.20;0.90;;;18.90;59.60;;;;;;5110362;28;20192;-69
2023/12/25 12:26:31;;;;;;;1.10;1.00;;;18.90;59.50;;;;;;5093403;28;20173;-69
2023/12/25 12:28:57;;;;;;;1.10;0.90;;;18.90;59.60;;;;;;5088756;28;20224;-68
2023/12/25 12:31:23;;;;;;;1.10;0.90;;;18.90;59.60;;;;;;5085288;28;20205;-68
2023/12/25 12:33:49;;;;;;;0.90;0.90;;;18.90;59.60;;;;;;5078382;28;20196;-69
2023/12/25 12:36:15;;;;;;;1.02;0.82;;;18.90;59.50;;;;;;5096519;28;20184;-69
2023/12/25 12:38:44;;;;;;;2.30;1.02;;;18.90;59.60;;;;;;5096063;28;20182;-68
2023/12/25 12:41:12;;;;;;;1.40;0.73;;;18.90;59.60;;;;;;5093825;28;20192;-69
2023/12/25 12:43:41;;;;;;;0.73;0.73;;;18.90;59.70;;;;;;5096485;28;20177;-69
2023/12/25 12:46:17;;;;;;;0.70;0.70;;;18.90;59.60;;;;;;5078143;28;20184;-69